sensor_id;sensor_type;location;lat;lon;timestamp;temperature;humidity
38333;DHT22;25748;46.670;14.272;2022-12-07T00:01:11;4.20;67.60
38333;DHT22;25748;46.670;14.272;2022-12-07T00:03:38;4.20;67.70
38333;DHT22;25748;46.670;14.272;2022-12-07T00:06:06;4.20;67.70
38333;DHT22;25748;46.670;14.272;2022-12-07T00:08:33;4.10;67.80
38333;DHT22;25748;46.670;14.272;2022-12-07T00:11:07;4.20;68.00
38333;DHT22;25748;46.670;14.272;2022-12-07T00:13:34;4.10;68.00
38333;DHT22;25748;46.670;14.272;2022-12-07T00:16:14;4.10;68.00
38333;DHT22;25748;46.670;14.272;2022-12-07T00:18:40;4.10;68.00
38333;DHT22;25748;46.670;14.272;2022-12-07T00:21:10;4.10;67.90
38333;DHT22;25748;46.670;14.272;2022-12-07T00:23:36;4.10;67.90
38333;DHT22;25748;46.670;14.272;2022-12-07T00:26:20;4.10;67.90
38333;DHT22;25748;46.670;14.272;2022-12-07T00:28:47;4.10;68.10
38333;DHT22;25748;46.670;14.272;2022-12-07T00:31:14;4.10;68.30
38333;DHT22;25748;46.670;14.272;2022-12-07T00:33:40;4.00;68.30
38333;DHT22;25748;46.670;14.272;2022-12-07T00:36:15;4.00;68.40
38333;DHT22;25748;46.670;14.272;2022-12-07T00:38:41;4.10;68.60
38333;DHT22;25748;46.670;14.272;2022-12-07T00:41:13;4.10;68.80
38333;DHT22;25748;46.670;14.272;2022-12-07T00:43:40;4.00;68.80
38333;DHT22;25748;46.670;14.272;2022-12-07T00:46:06;4.00;68.90
38333;DHT22;25748;46.670;14.272;2022-12-07T00:48:32;4.00;68.90
38333;DHT22;25748;46.670;14.272;2022-12-07T00:50:58;4.00;69.00
38333;DHT22;25748;46.670;14.272;2022-12-07T00:53:24;4.00;69.00
38333;DHT22;25748;46.670;14.272;2022-12-07T00:55:50;4.00;69.00
38333;DHT22;25748;46.670;14.272;2022-12-07T00:58:16;4.00;69.00
38333;DHT22;25748;46.670;14.272;2022-12-07T01:00:42;4.00;69.00
38333;DHT22;25748;46.670;14.272;2022-12-07T01:03:10;4.00;69.10
38333;DHT22;25748;46.670;14.272;2022-12-07T01:05:36;4.00;69.10
38333;DHT22;25748;46.670;14.272;2022-12-07T01:08:02;4.00;69.20
38333;DHT22;25748;46.670;14.272;2022-12-07T01:10:28;4.00;69.20
38333;DHT22;25748;46.670;14.272;2022-12-07T01:12:56;4.00;69.40
38333;DHT22;25748;46.670;14.272;2022-12-07T01:15:22;3.90;69.30
38333;DHT22;25748;46.670;14.272;2022-12-07T01:17:48;4.00;69.50
38333;DHT22;25748;46.670;14.272;2022-12-07T01:20:14;4.00;69.60
38333;DHT22;25748;46.670;14.272;2022-12-07T01:22:42;3.90;69.60
38333;DHT22;25748;46.670;14.272;2022-12-07T01:25:09;4.00;69.60
38333;DHT22;25748;46.670;14.272;2022-12-07T01:27:36;3.90;69.60
38333;DHT22;25748;46.670;14.272;2022-12-07T01:30:03;4.00;69.70
38333;DHT22;25748;46.670;14.272;2022-12-07T01:32:29;4.00;69.50
38333;DHT22;25748;46.670;14.272;2022-12-07T01:34:55;4.00;69.50
38333;DHT22;25748;46.670;14.272;2022-12-07T01:37:21;4.00;69.50
38333;DHT22;25748;46.670;14.272;2022-12-07T01:39:51;4.00;69.50
38333;DHT22;25748;46.670;14.272;2022-12-07T01:42:17;3.90;69.40
38333;DHT22;25748;46.670;14.272;2022-12-07T01:47:51;3.90;69.50
38333;DHT22;25748;46.670;14.272;2022-12-07T01:50:40;3.90;69.30
38333;DHT22;25748;46.670;14.272;2022-12-07T01:53:15;3.90;69.30
38333;DHT22;25748;46.670;14.272;2022-12-07T01:56:03;3.90;69.50
38333;DHT22;25748;46.670;14.272;2022-12-07T01:58:29;3.90;69.60
38333;DHT22;25748;46.670;14.272;2022-12-07T02:00:55;3.80;69.60
38333;DHT22;25748;46.670;14.272;2022-12-07T02:03:27;3.90;69.80
38333;DHT22;25748;46.670;14.272;2022-12-07T02:05:54;3.90;70.00
38333;DHT22;25748;46.670;14.272;2022-12-07T02:08:21;3.80;70.00
38333;DHT22;25748;46.670;14.272;2022-12-07T02:10:47;3.80;70.10
38333;DHT22;25748;46.670;14.272;2022-12-07T02:13:24;3.80;70.10
38333;DHT22;25748;46.670;14.272;2022-12-07T02:16:26;3.80;70.50
38333;DHT22;25748;46.670;14.272;2022-12-07T02:22:27;3.80;70.10
38333;DHT22;25748;46.670;14.272;2022-12-07T02:28:19;3.80;70.00
38333;DHT22;25748;46.670;14.272;2022-12-07T02:30:49;3.80;70.00
38333;DHT22;25748;46.670;14.272;2022-12-07T02:33:30;3.80;70.00
38333;DHT22;25748;46.670;14.272;2022-12-07T02:36:06;3.70;70.00
38333;DHT22;25748;46.670;14.272;2022-12-07T02:41:43;3.70;70.10
38333;DHT22;25748;46.670;14.272;2022-12-07T02:44:21;3.70;70.20
38333;DHT22;25748;46.670;14.272;2022-12-07T02:46:58;3.70;70.20
38333;DHT22;25748;46.670;14.272;2022-12-07T02:49:27;3.70;70.20
38333;DHT22;25748;46.670;14.272;2022-12-07T02:51:53;3.70;70.30
38333;DHT22;25748;46.670;14.272;2022-12-07T02:54:20;3.70;70.20
38333;DHT22;25748;46.670;14.272;2022-12-07T02:59:59;3.70;70.00
38333;DHT22;25748;46.670;14.272;2022-12-07T03:07:54;3.70;69.90
38333;DHT22;25748;46.670;14.272;2022-12-07T03:10:40;3.70;69.80
38333;DHT22;25748;46.670;14.272;2022-12-07T03:13:13;3.60;69.70
38333;DHT22;25748;46.670;14.272;2022-12-07T03:18:36;3.60;69.40
38333;DHT22;25748;46.670;14.272;2022-12-07T03:21:11;3.60;69.60
38333;DHT22;25748;46.670;14.272;2022-12-07T03:23:41;3.60;69.70
38333;DHT22;25748;46.670;14.272;2022-12-07T03:26:10;3.60;69.60
38333;DHT22;25748;46.670;14.272;2022-12-07T03:28:42;3.60;69.80
38333;DHT22;25748;46.670;14.272;2022-12-07T03:34:04;3.60;69.90
38333;DHT22;25748;46.670;14.272;2022-12-07T03:39:29;3.60;70.00
38333;DHT22;25748;46.670;14.272;2022-12-07T03:41:59;3.60;69.90
38333;DHT22;25748;46.670;14.272;2022-12-07T03:44:26;3.60;70.00
38333;DHT22;25748;46.670;14.272;2022-12-07T03:47:13;3.60;69.80
38333;DHT22;25748;46.670;14.272;2022-12-07T03:49:58;3.60;70.00
38333;DHT22;25748;46.670;14.272;2022-12-07T03:52:36;3.60;70.00
38333;DHT22;25748;46.670;14.272;2022-12-07T03:55:16;3.60;70.20
38333;DHT22;25748;46.670;14.272;2022-12-07T03:57:45;3.60;70.20
38333;DHT22;25748;46.670;14.272;2022-12-07T04:00:13;3.60;70.20
38333;DHT22;25748;46.670;14.272;2022-12-07T04:02:39;3.60;70.10
38333;DHT22;25748;46.670;14.272;2022-12-07T04:05:05;3.60;70.00
38333;DHT22;25748;46.670;14.272;2022-12-07T04:07:31;3.60;70.00
38333;DHT22;25748;46.670;14.272;2022-12-07T04:09:57;3.60;69.90
38333;DHT22;25748;46.670;14.272;2022-12-07T04:12:23;3.60;69.90
38333;DHT22;25748;46.670;14.272;2022-12-07T04:14:49;3.60;69.90
38333;DHT22;25748;46.670;14.272;2022-12-07T04:17:15;3.60;69.90
38333;DHT22;25748;46.670;14.272;2022-12-07T04:19:40;3.60;69.90
38333;DHT22;25748;46.670;14.272;2022-12-07T04:22:06;3.60;69.70
38333;DHT22;25748;46.670;14.272;2022-12-07T04:24:33;3.60;69.80
38333;DHT22;25748;46.670;14.272;2022-12-07T04:26:58;3.60;69.90
38333;DHT22;25748;46.670;14.272;2022-12-07T04:29:25;3.70;70.00
38333;DHT22;25748;46.670;14.272;2022-12-07T04:31:51;3.70;69.90
38333;DHT22;25748;46.670;14.272;2022-12-07T04:34:18;3.70;69.70
38333;DHT22;25748;46.670;14.272;2022-12-07T04:36:44;3.70;69.70
38333;DHT22;25748;46.670;14.272;2022-12-07T04:39:30;3.70;69.70
38333;DHT22;25748;46.670;14.272;2022-12-07T04:41:56;3.70;69.70
38333;DHT22;25748;46.670;14.272;2022-12-07T04:44:23;3.70;69.60
38333;DHT22;25748;46.670;14.272;2022-12-07T04:46:50;3.70;69.60
38333;DHT22;25748;46.670;14.272;2022-12-07T04:49:16;3.80;69.40
38333;DHT22;25748;46.670;14.272;2022-12-07T04:51:42;3.80;69.80
38333;DHT22;25748;46.670;14.272;2022-12-07T04:54:09;3.80;69.30
38333;DHT22;25748;46.670;14.272;2022-12-07T04:56:35;3.80;69.20
38333;DHT22;25748;46.670;14.272;2022-12-07T04:59:01;3.80;69.00
38333;DHT22;25748;46.670;14.272;2022-12-07T05:01:27;3.80;69.00
38333;DHT22;25748;46.670;14.272;2022-12-07T05:03:53;3.80;69.10
38333;DHT22;25748;46.670;14.272;2022-12-07T05:06:19;3.80;69.00
38333;DHT22;25748;46.670;14.272;2022-12-07T05:08:45;3.80;68.90
38333;DHT22;25748;46.670;14.272;2022-12-07T05:11:11;3.90;69.00
38333;DHT22;25748;46.670;14.272;2022-12-07T05:14:00;3.90;68.90
38333;DHT22;25748;46.670;14.272;2022-12-07T05:16:26;3.90;68.70
38333;DHT22;25748;46.670;14.272;2022-12-07T05:18:52;3.90;68.60
38333;DHT22;25748;46.670;14.272;2022-12-07T05:21:18;3.90;68.50
38333;DHT22;25748;46.670;14.272;2022-12-07T05:23:44;3.90;68.50
38333;DHT22;25748;46.670;14.272;2022-12-07T05:26:09;3.80;68.30
38333;DHT22;25748;46.670;14.272;2022-12-07T05:28:35;3.80;68.30
38333;DHT22;25748;46.670;14.272;2022-12-07T05:31:01;3.90;68.30
38333;DHT22;25748;46.670;14.272;2022-12-07T05:33:27;3.90;68.20
38333;DHT22;25748;46.670;14.272;2022-12-07T05:35:52;3.90;68.10
38333;DHT22;25748;46.670;14.272;2022-12-07T05:38:18;3.90;68.00
38333;DHT22;25748;46.670;14.272;2022-12-07T05:40:43;3.80;67.90
38333;DHT22;25748;46.670;14.272;2022-12-07T05:43:10;3.80;67.80
38333;DHT22;25748;46.670;14.272;2022-12-07T05:45:36;3.90;67.90
38333;DHT22;25748;46.670;14.272;2022-12-07T05:48:02;3.80;67.80
38333;DHT22;25748;46.670;14.272;2022-12-07T05:50:27;3.90;67.80
38333;DHT22;25748;46.670;14.272;2022-12-07T05:52:53;3.90;67.80
38333;DHT22;25748;46.670;14.272;2022-12-07T05:55:19;3.80;67.70
38333;DHT22;25748;46.670;14.272;2022-12-07T05:57:45;3.80;67.80
38333;DHT22;25748;46.670;14.272;2022-12-07T06:00:31;3.80;67.70
38333;DHT22;25748;46.670;14.272;2022-12-07T06:02:57;3.80;67.70
38333;DHT22;25748;46.670;14.272;2022-12-07T06:05:23;3.80;67.80
38333;DHT22;25748;46.670;14.272;2022-12-07T06:07:49;3.80;67.80
38333;DHT22;25748;46.670;14.272;2022-12-07T06:10:15;3.80;67.80
38333;DHT22;25748;46.670;14.272;2022-12-07T06:12:41;3.80;67.70
38333;DHT22;25748;46.670;14.272;2022-12-07T06:15:09;3.80;67.70
38333;DHT22;25748;46.670;14.272;2022-12-07T06:17:36;3.70;67.50
38333;DHT22;25748;46.670;14.272;2022-12-07T06:20:03;3.80;67.60
38333;DHT22;25748;46.670;14.272;2022-12-07T06:22:28;3.80;67.60
38333;DHT22;25748;46.670;14.272;2022-12-07T06:24:54;3.80;67.60
38333;DHT22;25748;46.670;14.272;2022-12-07T06:27:20;3.70;67.40
38333;DHT22;25748;46.670;14.272;2022-12-07T06:29:45;3.70;67.30
38333;DHT22;25748;46.670;14.272;2022-12-07T06:32:11;3.80;67.40
38333;DHT22;25748;46.670;14.272;2022-12-07T06:34:38;3.80;67.40
38333;DHT22;25748;46.670;14.272;2022-12-07T06:37:04;3.80;67.30
38333;DHT22;25748;46.670;14.272;2022-12-07T06:39:30;3.80;67.30
38333;DHT22;25748;46.670;14.272;2022-12-07T06:41:56;3.80;67.30
38333;DHT22;25748;46.670;14.272;2022-12-07T06:44:22;3.80;67.20
38333;DHT22;25748;46.670;14.272;2022-12-07T06:46:49;3.80;67.20
38333;DHT22;25748;46.670;14.272;2022-12-07T06:49:14;3.80;67.20
38333;DHT22;25748;46.670;14.272;2022-12-07T06:51:40;3.80;67.10
38333;DHT22;25748;46.670;14.272;2022-12-07T06:54:13;3.80;67.00
38333;DHT22;25748;46.670;14.272;2022-12-07T06:56:39;3.80;66.80
38333;DHT22;25748;46.670;14.272;2022-12-07T06:59:05;3.80;66.80
38333;DHT22;25748;46.670;14.272;2022-12-07T07:01:33;3.80;66.70
38333;DHT22;25748;46.670;14.272;2022-12-07T07:03:58;3.70;66.50
38333;DHT22;25748;46.670;14.272;2022-12-07T07:06:25;3.70;66.40
38333;DHT22;25748;46.670;14.272;2022-12-07T07:08:51;3.70;66.40
38333;DHT22;25748;46.670;14.272;2022-12-07T07:11:17;3.70;66.40
38333;DHT22;25748;46.670;14.272;2022-12-07T07:13:42;3.60;66.30
38333;DHT22;25748;46.670;14.272;2022-12-07T07:16:09;3.60;66.40
38333;DHT22;25748;46.670;14.272;2022-12-07T07:18:35;3.60;66.50
38333;DHT22;25748;46.670;14.272;2022-12-07T07:21:01;3.60;66.70
38333;DHT22;25748;46.670;14.272;2022-12-07T07:23:27;3.50;66.70
38333;DHT22;25748;46.670;14.272;2022-12-07T07:25:53;3.60;66.80
38333;DHT22;25748;46.670;14.272;2022-12-07T07:28:19;3.60;66.80
38333;DHT22;25748;46.670;14.272;2022-12-07T07:30:45;3.50;66.80
38333;DHT22;25748;46.670;14.272;2022-12-07T07:33:11;3.50;67.00
38333;DHT22;25748;46.670;14.272;2022-12-07T07:35:37;3.50;67.10
38333;DHT22;25748;46.670;14.272;2022-12-07T07:38:04;3.50;67.10
38333;DHT22;25748;46.670;14.272;2022-12-07T07:40:30;3.50;67.20
38333;DHT22;25748;46.670;14.272;2022-12-07T07:42:56;3.50;67.30
38333;DHT22;25748;46.670;14.272;2022-12-07T07:45:23;3.60;67.40
38333;DHT22;25748;46.670;14.272;2022-12-07T07:47:50;3.50;67.30
38333;DHT22;25748;46.670;14.272;2022-12-07T07:50:16;3.50;67.40
38333;DHT22;25748;46.670;14.272;2022-12-07T07:52:42;3.60;67.40
38333;DHT22;25748;46.670;14.272;2022-12-07T07:55:08;3.60;67.30
38333;DHT22;25748;46.670;14.272;2022-12-07T07:57:35;3.60;67.40
38333;DHT22;25748;46.670;14.272;2022-12-07T08:00:09;3.60;67.30
38333;DHT22;25748;46.670;14.272;2022-12-07T08:02:36;3.60;67.20
38333;DHT22;25748;46.670;14.272;2022-12-07T08:05:02;3.60;67.20
38333;DHT22;25748;46.670;14.272;2022-12-07T08:07:28;3.60;67.10
38333;DHT22;25748;46.670;14.272;2022-12-07T08:09:54;3.60;67.00
38333;DHT22;25748;46.670;14.272;2022-12-07T08:12:20;3.60;67.00
38333;DHT22;25748;46.670;14.272;2022-12-07T08:14:45;3.60;66.90
38333;DHT22;25748;46.670;14.272;2022-12-07T08:17:12;3.60;66.90
38333;DHT22;25748;46.670;14.272;2022-12-07T08:19:38;3.60;66.80
38333;DHT22;25748;46.670;14.272;2022-12-07T08:22:03;3.60;66.80
38333;DHT22;25748;46.670;14.272;2022-12-07T08:24:29;3.60;66.80
38333;DHT22;25748;46.670;14.272;2022-12-07T08:26:55;3.60;66.70
38333;DHT22;25748;46.670;14.272;2022-12-07T08:29:21;3.60;66.60
38333;DHT22;25748;46.670;14.272;2022-12-07T08:31:46;3.70;66.70
38333;DHT22;25748;46.670;14.272;2022-12-07T08:34:13;3.70;66.70
38333;DHT22;25748;46.670;14.272;2022-12-07T08:36:38;3.70;66.40
38333;DHT22;25748;46.670;14.272;2022-12-07T08:39:04;3.70;66.40
38333;DHT22;25748;46.670;14.272;2022-12-07T08:41:30;3.70;66.20
38333;DHT22;25748;46.670;14.272;2022-12-07T08:43:56;3.70;65.70
38333;DHT22;25748;46.670;14.272;2022-12-07T08:46:25;3.70;66.00
38333;DHT22;25748;46.670;14.272;2022-12-07T08:49:23;3.70;66.00
38333;DHT22;25748;46.670;14.272;2022-12-07T08:51:50;3.70;65.90
38333;DHT22;25748;46.670;14.272;2022-12-07T08:54:17;3.70;65.40
38333;DHT22;25748;46.670;14.272;2022-12-07T08:56:45;3.80;65.60
38333;DHT22;25748;46.670;14.272;2022-12-07T08:59:13;3.80;65.40
38333;DHT22;25748;46.670;14.272;2022-12-07T09:01:40;3.80;65.30
38333;DHT22;25748;46.670;14.272;2022-12-07T09:04:05;3.80;65.10
38333;DHT22;25748;46.670;14.272;2022-12-07T09:06:31;3.80;64.80
38333;DHT22;25748;46.670;14.272;2022-12-07T09:08:59;3.80;64.80
38333;DHT22;25748;46.670;14.272;2022-12-07T09:11:25;3.80;64.40
38333;DHT22;25748;46.670;14.272;2022-12-07T09:13:51;3.80;64.40
38333;DHT22;25748;46.670;14.272;2022-12-07T09:16:17;3.80;63.90
38333;DHT22;25748;46.670;14.272;2022-12-07T09:18:42;3.80;63.70
38333;DHT22;25748;46.670;14.272;2022-12-07T09:21:08;3.80;63.90
38333;DHT22;25748;46.670;14.272;2022-12-07T09:23:34;3.80;63.90
38333;DHT22;25748;46.670;14.272;2022-12-07T09:26:01;3.80;63.80
38333;DHT22;25748;46.670;14.272;2022-12-07T09:28:27;3.90;63.90
38333;DHT22;25748;46.670;14.272;2022-12-07T09:30:52;3.90;63.90
38333;DHT22;25748;46.670;14.272;2022-12-07T09:33:18;3.80;63.60
38333;DHT22;25748;46.670;14.272;2022-12-07T09:35:48;3.90;63.80
38333;DHT22;25748;46.670;14.272;2022-12-07T09:38:15;3.90;63.60
38333;DHT22;25748;46.670;14.272;2022-12-07T09:40:42;3.80;63.60
38333;DHT22;25748;46.670;14.272;2022-12-07T09:43:22;3.80;63.40
38333;DHT22;25748;46.670;14.272;2022-12-07T09:45:51;3.80;63.40
38333;DHT22;25748;46.670;14.272;2022-12-07T09:48:20;3.80;63.50
38333;DHT22;25748;46.670;14.272;2022-12-07T09:50:47;3.80;63.30
38333;DHT22;25748;46.670;14.272;2022-12-07T09:53:37;3.80;63.40
38333;DHT22;25748;46.670;14.272;2022-12-07T09:56:04;3.80;63.60
38333;DHT22;25748;46.670;14.272;2022-12-07T09:58:31;3.80;63.60
38333;DHT22;25748;46.670;14.272;2022-12-07T10:01:21;3.90;63.80
38333;DHT22;25748;46.670;14.272;2022-12-07T10:03:54;3.90;63.80
38333;DHT22;25748;46.670;14.272;2022-12-07T10:06:20;4.00;63.80
38333;DHT22;25748;46.670;14.272;2022-12-07T10:08:46;3.90;63.60
38333;DHT22;25748;46.670;14.272;2022-12-07T10:11:12;4.00;63.70
38333;DHT22;25748;46.670;14.272;2022-12-07T10:13:48;4.00;63.60
38333;DHT22;25748;46.670;14.272;2022-12-07T10:16:38;4.00;63.50
38333;DHT22;25748;46.670;14.272;2022-12-07T10:22:00;4.10;63.40
38333;DHT22;25748;46.670;14.272;2022-12-07T10:24:26;4.10;63.30
38333;DHT22;25748;46.670;14.272;2022-12-07T10:26:52;4.10;63.20
38333;DHT22;25748;46.670;14.272;2022-12-07T10:29:38;4.10;63.00
38333;DHT22;25748;46.670;14.272;2022-12-07T10:32:06;4.20;63.00
38333;DHT22;25748;46.670;14.272;2022-12-07T10:34:46;4.20;62.70
38333;DHT22;25748;46.670;14.272;2022-12-07T10:39:48;4.20;62.40
38333;DHT22;25748;46.670;14.272;2022-12-07T10:42:20;4.20;62.40
38333;DHT22;25748;46.670;14.272;2022-12-07T10:44:46;4.20;61.30
38333;DHT22;25748;46.670;14.272;2022-12-07T10:53:20;4.10;61.60
38333;DHT22;25748;46.670;14.272;2022-12-07T11:21:33;4.30;59.10
38333;DHT22;25748;46.670;14.272;2022-12-07T11:26:34;4.30;59.20
38333;DHT22;25748;46.670;14.272;2022-12-07T11:29:13;4.30;59.00
38333;DHT22;25748;46.670;14.272;2022-12-07T11:37:19;4.30;58.50
38333;DHT22;25748;46.670;14.272;2022-12-07T11:39:55;4.30;58.70
38333;DHT22;25748;46.670;14.272;2022-12-07T11:42:36;4.30;58.30
38333;DHT22;25748;46.670;14.272;2022-12-07T11:57:51;4.40;58.20
38333;DHT22;25748;46.670;14.272;2022-12-07T12:00:19;4.40;58.20
38333;DHT22;25748;46.670;14.272;2022-12-07T12:03:03;4.30;58.30
38333;DHT22;25748;46.670;14.272;2022-12-07T12:05:31;4.40;58.60
38333;DHT22;25748;46.670;14.272;2022-12-07T12:08:17;4.40;58.70
38333;DHT22;25748;46.670;14.272;2022-12-07T12:21:30;4.40;58.40
38333;DHT22;25748;46.670;14.272;2022-12-07T12:24:02;4.40;58.50
38333;DHT22;25748;46.670;14.272;2022-12-07T12:26:33;4.40;58.40
38333;DHT22;25748;46.670;14.272;2022-12-07T12:29:06;4.40;58.30
38333;DHT22;25748;46.670;14.272;2022-12-07T12:31:35;4.40;58.20
38333;DHT22;25748;46.670;14.272;2022-12-07T12:34:04;4.40;58.30
38333;DHT22;25748;46.670;14.272;2022-12-07T12:36:49;4.40;58.30
38333;DHT22;25748;46.670;14.272;2022-12-07T12:39:16;4.40;58.20
38333;DHT22;25748;46.670;14.272;2022-12-07T12:46:54;4.40;57.70
38333;DHT22;25748;46.670;14.272;2022-12-07T12:51:47;4.40;57.50
38333;DHT22;25748;46.670;14.272;2022-12-07T12:54:27;4.40;57.70
38333;DHT22;25748;46.670;14.272;2022-12-07T12:57:15;4.30;57.70
38333;DHT22;25748;46.670;14.272;2022-12-07T13:02:33;4.40;58.00
38333;DHT22;25748;46.670;14.272;2022-12-07T13:05:18;4.30;58.00
38333;DHT22;25748;46.670;14.272;2022-12-07T13:07:49;4.30;57.80
38333;DHT22;25748;46.670;14.272;2022-12-07T13:15:51;4.40;58.10
38333;DHT22;25748;46.670;14.272;2022-12-07T13:29:19;4.30;58.30
38333;DHT22;25748;46.670;14.272;2022-12-07T13:31:44;4.30;58.30
38333;DHT22;25748;46.670;14.272;2022-12-07T13:37:28;4.30;58.50
38333;DHT22;25748;46.670;14.272;2022-12-07T13:39:57;4.30;58.60
38333;DHT22;25748;46.670;14.272;2022-12-07T13:42:33;4.30;58.30
38333;DHT22;25748;46.670;14.272;2022-12-07T13:45:16;4.20;57.90
38333;DHT22;25748;46.670;14.272;2022-12-07T13:47:48;4.20;57.80
38333;DHT22;25748;46.670;14.272;2022-12-07T13:50:28;4.30;57.80
38333;DHT22;25748;46.670;14.272;2022-12-07T13:53:01;4.20;57.80
38333;DHT22;25748;46.670;14.272;2022-12-07T13:55:28;4.20;57.90
38333;DHT22;25748;46.670;14.272;2022-12-07T13:57:54;4.20;58.10
38333;DHT22;25748;46.670;14.272;2022-12-07T14:00:28;4.20;58.10
38333;DHT22;25748;46.670;14.272;2022-12-07T14:05:27;4.20;58.00
38333;DHT22;25748;46.670;14.272;2022-12-07T14:07:55;4.20;58.00
38333;DHT22;25748;46.670;14.272;2022-12-07T14:10:30;4.20;58.00
38333;DHT22;25748;46.670;14.272;2022-12-07T14:12:56;4.20;58.00
38333;DHT22;25748;46.670;14.272;2022-12-07T14:15:31;4.20;58.00
38333;DHT22;25748;46.670;14.272;2022-12-07T14:17:58;4.20;58.10
38333;DHT22;25748;46.670;14.272;2022-12-07T14:20:35;4.20;58.00
38333;DHT22;25748;46.670;14.272;2022-12-07T14:23:02;4.20;58.00
38333;DHT22;25748;46.670;14.272;2022-12-07T14:26:04;4.10;57.90
38333;DHT22;25748;46.670;14.272;2022-12-07T14:28:32;4.10;57.90
38333;DHT22;25748;46.670;14.272;2022-12-07T14:30:58;4.10;57.90
38333;DHT22;25748;46.670;14.272;2022-12-07T14:33:25;4.10;57.90
38333;DHT22;25748;46.670;14.272;2022-12-07T14:35:51;4.10;57.90
38333;DHT22;25748;46.670;14.272;2022-12-07T14:38:21;4.00;57.90
38333;DHT22;25748;46.670;14.272;2022-12-07T14:40:47;4.00;58.00
38333;DHT22;25748;46.670;14.272;2022-12-07T14:43:15;4.00;58.00
38333;DHT22;25748;46.670;14.272;2022-12-07T14:45:42;4.00;57.80
38333;DHT22;25748;46.670;14.272;2022-12-07T14:48:11;4.00;58.00
38333;DHT22;25748;46.670;14.272;2022-12-07T14:50:50;4.00;57.70
38333;DHT22;25748;46.670;14.272;2022-12-07T14:53:19;3.90;57.70
38333;DHT22;25748;46.670;14.272;2022-12-07T14:55:48;3.90;57.40
38333;DHT22;25748;46.670;14.272;2022-12-07T14:58:15;3.90;57.50
38333;DHT22;25748;46.670;14.272;2022-12-07T15:00:41;3.90;57.50
38333;DHT22;25748;46.670;14.272;2022-12-07T15:03:07;3.90;57.80
38333;DHT22;25748;46.670;14.272;2022-12-07T15:05:33;3.80;57.90
38333;DHT22;25748;46.670;14.272;2022-12-07T15:07:59;3.80;58.10
38333;DHT22;25748;46.670;14.272;2022-12-07T15:10:28;3.80;58.40
38333;DHT22;25748;46.670;14.272;2022-12-07T15:13:02;3.80;58.60
38333;DHT22;25748;46.670;14.272;2022-12-07T15:15:47;3.80;58.70
38333;DHT22;25748;46.670;14.272;2022-12-07T15:18:14;3.80;58.40
38333;DHT22;25748;46.670;14.272;2022-12-07T15:20:40;3.80;58.40
38333;DHT22;25748;46.670;14.272;2022-12-07T15:23:06;3.80;58.50
38333;DHT22;25748;46.670;14.272;2022-12-07T15:25:31;3.80;58.50
38333;DHT22;25748;46.670;14.272;2022-12-07T15:27:57;3.70;58.50
38333;DHT22;25748;46.670;14.272;2022-12-07T15:30:23;3.70;58.40
38333;DHT22;25748;46.670;14.272;2022-12-07T15:32:49;3.70;58.20
38333;DHT22;25748;46.670;14.272;2022-12-07T15:35:15;3.70;58.20
38333;DHT22;25748;46.670;14.272;2022-12-07T15:37:41;3.70;58.40
38333;DHT22;25748;46.670;14.272;2022-12-07T15:40:07;3.70;58.60
38333;DHT22;25748;46.670;14.272;2022-12-07T15:42:33;3.70;58.70
38333;DHT22;25748;46.670;14.272;2022-12-07T15:45:00;3.80;58.90
38333;DHT22;25748;46.670;14.272;2022-12-07T15:47:33;3.80;59.00
38333;DHT22;25748;46.670;14.272;2022-12-07T15:49:59;3.80;59.10
38333;DHT22;25748;46.670;14.272;2022-12-07T15:52:24;3.80;59.30
38333;DHT22;25748;46.670;14.272;2022-12-07T15:54:50;3.80;59.40
38333;DHT22;25748;46.670;14.272;2022-12-07T15:57:16;3.90;59.60
38333;DHT22;25748;46.670;14.272;2022-12-07T15:59:41;3.80;59.60
38333;DHT22;25748;46.670;14.272;2022-12-07T16:02:09;3.90;59.80
38333;DHT22;25748;46.670;14.272;2022-12-07T16:04:35;3.80;59.80
38333;DHT22;25748;46.670;14.272;2022-12-07T16:07:02;3.90;60.00
38333;DHT22;25748;46.670;14.272;2022-12-07T16:09:27;3.90;60.20
38333;DHT22;25748;46.670;14.272;2022-12-07T16:11:54;3.90;60.20
38333;DHT22;25748;46.670;14.272;2022-12-07T16:14:20;3.90;60.30
38333;DHT22;25748;46.670;14.272;2022-12-07T16:16:46;3.90;60.40
38333;DHT22;25748;46.670;14.272;2022-12-07T16:19:12;3.90;60.50
38333;DHT22;25748;46.670;14.272;2022-12-07T16:21:38;3.90;60.50
38333;DHT22;25748;46.670;14.272;2022-12-07T16:24:05;3.90;60.50
38333;DHT22;25748;46.670;14.272;2022-12-07T16:26:31;3.90;60.40
38333;DHT22;25748;46.670;14.272;2022-12-07T16:28:57;3.90;60.40
38333;DHT22;25748;46.670;14.272;2022-12-07T16:31:24;3.90;60.40
38333;DHT22;25748;46.670;14.272;2022-12-07T16:33:52;3.90;60.40
38333;DHT22;25748;46.670;14.272;2022-12-07T16:36:18;3.90;60.50
38333;DHT22;25748;46.670;14.272;2022-12-07T16:38:44;3.90;60.70
38333;DHT22;25748;46.670;14.272;2022-12-07T16:41:10;3.90;60.90
38333;DHT22;25748;46.670;14.272;2022-12-07T16:43:37;3.90;61.00
38333;DHT22;25748;46.670;14.272;2022-12-07T16:46:03;3.90;61.10
38333;DHT22;25748;46.670;14.272;2022-12-07T16:48:29;3.90;61.10
38333;DHT22;25748;46.670;14.272;2022-12-07T16:50:55;3.90;61.10
38333;DHT22;25748;46.670;14.272;2022-12-07T16:53:22;3.90;61.20
38333;DHT22;25748;46.670;14.272;2022-12-07T16:55:48;3.90;61.10
38333;DHT22;25748;46.670;14.272;2022-12-07T16:58:16;3.90;61.10
38333;DHT22;25748;46.670;14.272;2022-12-07T17:00:43;3.90;61.10
38333;DHT22;25748;46.670;14.272;2022-12-07T17:03:09;3.90;61.10
38333;DHT22;25748;46.670;14.272;2022-12-07T17:05:40;3.90;61.20
38333;DHT22;25748;46.670;14.272;2022-12-07T17:08:06;3.90;61.30
38333;DHT22;25748;46.670;14.272;2022-12-07T17:10:37;3.90;61.40
38333;DHT22;25748;46.670;14.272;2022-12-07T17:13:04;3.90;61.40
38333;DHT22;25748;46.670;14.272;2022-12-07T17:15:58;3.90;61.50
38333;DHT22;25748;46.670;14.272;2022-12-07T17:18:24;3.90;61.70
38333;DHT22;25748;46.670;14.272;2022-12-07T17:20:51;3.90;61.80
38333;DHT22;25748;46.670;14.272;2022-12-07T17:23:17;3.90;62.00
38333;DHT22;25748;46.670;14.272;2022-12-07T17:25:42;3.90;62.00
38333;DHT22;25748;46.670;14.272;2022-12-07T17:28:08;3.90;62.00
38333;DHT22;25748;46.670;14.272;2022-12-07T17:30:34;3.90;62.00
38333;DHT22;25748;46.670;14.272;2022-12-07T17:32:59;3.90;62.00
38333;DHT22;25748;46.670;14.272;2022-12-07T17:35:25;3.90;62.00
38333;DHT22;25748;46.670;14.272;2022-12-07T17:37:51;3.90;62.10
38333;DHT22;25748;46.670;14.272;2022-12-07T17:40:16;3.90;62.10
38333;DHT22;25748;46.670;14.272;2022-12-07T17:42:42;3.90;62.00
38333;DHT22;25748;46.670;14.272;2022-12-07T17:45:13;3.90;62.10
38333;DHT22;25748;46.670;14.272;2022-12-07T17:47:39;3.90;62.10
38333;DHT22;25748;46.670;14.272;2022-12-07T17:50:06;3.80;62.00
38333;DHT22;25748;46.670;14.272;2022-12-07T17:52:32;3.80;62.10